createdAt,value
2018-05-16T00:00:32.134Z,7.83
2018-05-16T00:03:00.212Z,6.77
2018-05-16T00:05:28.285Z,8.17
2018-05-16T00:07:57.632Z,7.70
2018-05-16T00:10:25.733Z,6.97
2018-05-16T00:12:53.819Z,7.10
2018-05-16T00:15:21.903Z,7.07
2018-05-16T00:17:49.947Z,7.93
2018-05-16T00:20:18.808Z,8.20
2018-05-16T00:22:46.895Z,7.80
2018-05-16T00:25:14.982Z,8.40
2018-05-16T00:27:43.039Z,7.13
2018-05-16T00:30:11.649Z,6.63
2018-05-16T00:32:41.650Z,8.53
2018-05-16T00:35:09.722Z,10.53
2018-05-16T00:37:37.828Z,6.83
2018-05-16T00:40:05.908Z,6.73
2018-05-16T00:42:33.956Z,8.77
2018-05-16T00:45:02.098Z,6.93
2018-05-16T00:47:30.150Z,6.67
2018-05-16T00:49:58.221Z,9.50
2018-05-16T00:52:26.337Z,9.67
2018-05-16T00:54:54.413Z,8.37
2018-05-16T00:57:22.783Z,8.83
2018-05-16T00:59:50.868Z,10.90
2018-05-16T01:02:18.919Z,7.60
2018-05-16T01:04:46.990Z,7.17
2018-05-16T01:07:15.381Z,7.33
2018-05-16T01:09:43.752Z,7.47
2018-05-16T01:12:11.820Z,7.13
2018-05-16T01:14:40.225Z,8.10
2018-05-16T01:17:08.277Z,8.20
2018-05-16T01:19:37.857Z,7.23
2018-05-16T01:22:05.969Z,9.20
2018-05-16T01:24:34.052Z,9.33
2018-05-16T01:27:02.889Z,7.13
2018-05-16T01:29:31.391Z,8.53
2018-05-16T01:31:59.463Z,7.27
2018-05-16T01:34:27.560Z,8.10
2018-05-16T01:36:55.933Z,8.47
2018-05-16T01:39:24.769Z,8.67
2018-05-16T01:41:53.149Z,8.80
2018-05-16T01:44:21.221Z,7.60
2018-05-16T01:46:49.490Z,6.70
2018-05-16T01:49:17.570Z,7.23
2018-05-16T01:51:46.084Z,8.47
2018-05-16T01:54:14.162Z,7.00
2018-05-16T01:56:42.236Z,7.80
2018-05-16T01:59:10.328Z,12.03
2018-05-16T02:01:39.177Z,7.00
2018-05-16T02:04:07.249Z,8.17
2018-05-16T02:06:35.334Z,8.57
2018-05-16T02:09:03.412Z,7.30
2018-05-16T02:11:31.848Z,7.80
2018-05-16T02:14:00.285Z,8.47
2018-05-16T02:16:29.141Z,8.53
2018-05-16T02:18:57.245Z,11.00
2018-05-16T02:21:25.593Z,8.40
2018-05-16T02:23:53.730Z,9.27
2018-05-16T02:26:22.585Z,9.63
2018-05-16T02:28:50.673Z,11.50
2018-05-16T02:31:19.521Z,10.80
2018-05-16T02:33:47.602Z,11.57
2018-05-16T02:36:15.894Z,12.83
2018-05-16T02:38:43.937Z,13.53
2018-05-16T02:41:12.041Z,15.20
2018-05-16T02:43:40.109Z,14.10
2018-05-16T02:46:08.949Z,15.63
2018-05-16T02:48:37.047Z,17.70
2018-05-16T02:51:05.409Z,17.43
2018-05-16T02:53:33.521Z,19.03
2018-05-16T02:56:01.595Z,16.97
2018-05-16T02:58:31.570Z,19.37
2018-05-16T03:00:59.940Z,20.93
2018-05-16T03:03:28.009Z,20.80
2018-05-16T03:05:56.135Z,18.40
2018-05-16T03:08:24.995Z,22.03
2018-05-16T03:10:53.057Z,19.70
2018-05-16T03:13:21.325Z,23.73
2018-05-16T03:15:49.400Z,22.67
2018-05-16T03:18:17.513Z,22.60
2018-05-16T03:20:46.669Z,21.67
2018-05-16T03:23:14.740Z,23.57
2018-05-16T03:25:42.809Z,24.33
2018-05-16T03:28:10.881Z,24.87
2018-05-16T03:30:38.999Z,20.47
2018-05-16T03:33:07.072Z,23.37
2018-05-16T03:35:36.212Z,24.70
2018-05-16T03:38:04.513Z,24.83
2018-05-16T03:40:32.619Z,22.13
2018-05-16T03:43:01.494Z,22.00
2018-05-16T03:45:29.544Z,23.13
2018-05-16T03:47:57.609Z,23.13
2018-05-16T03:50:25.880Z,25.87
2018-05-16T03:52:53.995Z,22.87
2018-05-16T03:55:22.857Z,21.33
2018-05-16T03:57:51.005Z,26.30
2018-05-16T04:00:19.071Z,24.70
2018-05-16T04:02:47.252Z,25.73
2018-05-16T04:05:15.668Z,25.30
2018-05-16T04:07:43.721Z,25.60
2018-05-16T04:10:11.781Z,26.23
2018-05-16T04:12:40.160Z,23.17
2018-05-16T04:15:08.449Z,21.83
2018-05-16T04:17:36.548Z,22.97
2018-05-16T04:20:05.128Z,22.83
2018-05-16T04:22:33.835Z,22.37
2018-05-16T04:25:02.682Z,22.50
2018-05-16T04:27:30.741Z,22.97
2018-05-16T04:29:58.825Z,24.00
2018-05-16T04:32:27.509Z,23.20
2018-05-16T04:34:55.622Z,19.97
2018-05-16T04:37:24.449Z,19.77
2018-05-16T04:39:52.849Z,20.70
2018-05-16T04:42:20.925Z,23.63
2018-05-16T04:44:48.981Z,19.97
2018-05-16T04:47:17.460Z,18.67
2018-05-16T04:49:45.560Z,23.33
2018-05-16T04:52:14.426Z,17.97
2018-05-16T04:54:42.813Z,23.63
2018-05-16T04:57:10.876Z,19.97
2018-05-16T04:59:38.973Z,21.97
2018-05-16T05:02:08.865Z,19.93
2018-05-16T05:04:36.936Z,18.87
2018-05-16T05:07:05.001Z,18.73
2018-05-16T05:09:33.388Z,27.50
2018-05-16T05:12:01.453Z,19.77
2018-05-16T05:14:29.532Z,20.90
2018-05-16T05:16:58.013Z,19.30
2018-05-16T05:19:26.089Z,20.33
2018-05-16T05:21:54.145Z,23.67
2018-05-16T05:24:23.448Z,24.63
2018-05-16T05:26:52.277Z,20.30
2018-05-16T05:29:21.772Z,20.87
2018-05-16T05:31:50.536Z,23.97
2018-05-16T05:34:19.653Z,22.50
2018-05-16T05:36:48.615Z,21.70
2018-05-16T05:39:17.641Z,22.80
2018-05-16T05:41:46.223Z,21.33
2018-05-16T05:44:15.085Z,23.87
2018-05-16T05:46:44.733Z,26.90
2018-05-16T05:49:14.428Z,26.33
2018-05-16T05:51:43.137Z,23.80
2018-05-16T05:54:12.848Z,24.27
2018-05-16T05:56:42.236Z,24.23
2018-05-16T05:59:10.993Z,23.37
2018-05-16T06:01:40.090Z,21.27
2018-05-16T06:04:09.002Z,22.43
2018-05-16T06:06:37.913Z,20.63
2018-05-16T06:09:05.999Z,20.97
2018-05-16T06:11:35.586Z,19.87
2018-05-16T06:14:04.170Z,21.73
2018-05-16T06:16:33.948Z,19.63
2018-05-16T06:19:02.053Z,20.20
2018-05-16T06:21:31.645Z,17.27
2018-05-16T06:23:59.720Z,17.03
2018-05-16T06:26:27.784Z,17.77
2018-05-16T06:28:55.862Z,17.27
2018-05-16T06:31:24.334Z,16.93
2018-05-16T06:33:53.015Z,17.13
2018-05-16T06:36:22.466Z,13.97
2018-05-16T06:38:51.233Z,13.50
2018-05-16T06:41:21.355Z,12.27
2018-05-16T06:43:50.539Z,13.00
2018-05-16T06:46:19.661Z,12.10
2018-05-16T06:48:50.073Z,12.00
2018-05-16T06:51:19.782Z,12.00
2018-05-16T06:53:49.142Z,11.77
2018-05-16T06:56:17.224Z,14.67
2018-05-16T06:58:46.348Z,11.53
2018-05-16T07:01:14.425Z,13.83
2018-05-16T07:03:43.273Z,11.80
2018-05-16T07:06:11.902Z,13.20
2018-05-16T07:08:41.585Z,9.33
2018-05-16T07:11:10.258Z,7.63
2018-05-16T07:13:38.406Z,9.10
2018-05-16T07:16:07.994Z,6.47
2018-05-16T07:18:36.966Z,6.20
2018-05-16T07:21:06.623Z,6.37
2018-05-16T07:23:34.691Z,6.10
2018-05-16T07:26:02.826Z,6.00
2018-05-16T07:28:32.289Z,7.60
2018-05-16T07:31:01.421Z,6.20
2018-05-16T07:33:30.181Z,5.93
2018-05-16T07:35:59.007Z,7.73
2018-05-16T07:38:29.218Z,5.07
2018-05-16T07:40:58.885Z,4.87
2018-05-16T07:43:27.609Z,5.43
2018-05-16T07:45:56.661Z,4.43
2018-05-16T07:48:25.579Z,4.80
2018-05-16T07:50:54.460Z,5.47
2018-05-16T07:53:23.287Z,4.63
2018-05-16T07:55:53.177Z,4.63
2018-05-16T07:58:21.980Z,4.63
2018-05-16T08:00:50.027Z,4.25
2018-05-16T08:03:18.659Z,5.07
2018-05-16T08:05:48.450Z,4.37
2018-05-16T08:08:17.497Z,8.20
2018-05-16T08:10:49.171Z,4.18
2018-05-16T08:13:18.168Z,4.27
2018-05-16T08:15:47.584Z,5.40
2018-05-16T08:18:16.332Z,5.40
2018-05-16T08:20:44.397Z,4.23
2018-05-16T08:23:13.002Z,4.93
2018-05-16T08:25:41.804Z,3.28
2018-05-16T08:28:11.666Z,3.33
2018-05-16T08:30:40.731Z,4.57
2018-05-16T08:33:09.544Z,3.08
2018-05-16T08:35:38.353Z,3.65
2018-05-16T08:38:08.102Z,2.95
2018-05-16T08:40:37.444Z,2.78
2018-05-16T08:43:06.512Z,4.05
2018-05-16T08:45:35.399Z,3.37
2018-05-16T08:48:05.062Z,3.28
2018-05-16T08:50:34.099Z,2.92
2018-05-16T08:53:03.842Z,3.58
2018-05-16T08:55:32.497Z,3.67
2018-05-16T08:58:02.287Z,3.03
2018-05-16T09:00:31.246Z,4.20
2018-05-16T09:02:59.353Z,3.87
2018-05-16T09:05:28.838Z,3.30
2018-05-16T09:07:56.914Z,3.10
2018-05-16T09:10:25.934Z,3.00
2018-05-16T09:12:55.242Z,2.95
2018-05-16T09:15:24.118Z,2.40
2018-05-16T09:17:52.265Z,3.05
2018-05-16T09:20:20.973Z,3.25
2018-05-16T09:22:49.588Z,5.68
2018-05-16T09:25:18.597Z,3.78
2018-05-16T09:27:47.949Z,3.05
2018-05-16T09:30:16.815Z,3.20
2018-05-16T09:32:45.789Z,3.55
2018-05-16T09:35:14.430Z,4.00
2018-05-16T09:37:44.476Z,5.50
2018-05-16T09:40:13.113Z,5.18
2018-05-16T09:42:41.932Z,3.50
2018-05-16T09:45:12.359Z,4.15
2018-05-16T09:47:40.561Z,3.30
2018-05-16T09:50:10.097Z,5.43
2018-05-16T09:52:38.208Z,4.82
2018-05-16T09:55:07.454Z,3.62
2018-05-16T09:57:36.476Z,3.15
2018-05-16T10:00:05.898Z,3.72
2018-05-16T10:02:34.625Z,3.70
2018-05-16T10:05:02.757Z,3.12
2018-05-16T10:07:32.828Z,3.50
2018-05-16T10:10:00.933Z,4.10
2018-05-16T10:12:29.808Z,4.55
2018-05-16T10:28:00.453Z,3.15
2018-05-16T10:30:30.563Z,4.37
2018-05-16T10:32:59.511Z,4.32
2018-05-16T10:35:28.237Z,3.17
2018-05-16T10:37:56.373Z,6.12
2018-05-16T10:40:26.029Z,4.05
2018-05-16T10:42:55.887Z,3.80
2018-05-16T10:45:25.009Z,4.53
2018-05-16T10:47:53.934Z,4.25
2018-05-16T10:50:23.887Z,3.35
2018-05-16T10:52:52.514Z,8.05
2018-05-16T10:55:20.591Z,4.30
2018-05-16T10:57:48.648Z,3.67
2018-05-16T11:00:18.681Z,4.20
2018-05-16T11:02:47.441Z,3.95
2018-05-16T11:05:16.331Z,3.80
2018-05-16T11:07:45.128Z,3.53
2018-05-16T11:10:14.253Z,6.80
2018-05-16T11:12:44.141Z,5.37
2018-05-16T11:15:13.206Z,4.32
2018-05-16T11:17:41.285Z,4.12
2018-05-16T11:20:09.397Z,3.28
2018-05-16T11:22:38.341Z,2.80
2018-05-16T11:25:07.414Z,3.45
2018-05-16T11:27:36.265Z,3.95
2018-05-16T11:30:05.577Z,4.80
2018-05-16T11:32:35.960Z,5.32
2018-05-16T11:35:04.868Z,3.65
2018-05-16T11:37:33.459Z,4.12
2018-05-16T11:40:02.247Z,3.47
2018-05-16T11:42:31.133Z,4.32
2018-05-16T11:44:59.125Z,3.15
2018-05-16T11:47:27.213Z,5.15
2018-05-16T11:49:55.667Z,5.53
2018-05-16T11:52:23.745Z,3.55
2018-05-16T11:54:53.341Z,5.07
2018-05-16T11:57:22.051Z,3.60
2018-05-16T11:59:51.813Z,4.93
2018-05-16T12:02:20.616Z,4.30
2018-05-16T12:04:49.423Z,3.80
2018-05-16T12:07:19.013Z,3.08
2018-05-16T12:09:47.826Z,5.55
2018-05-16T12:12:16.617Z,3.25
2018-05-16T12:14:44.716Z,3.78
2018-05-16T12:17:14.422Z,2.90
2018-05-16T12:19:43.820Z,4.00
2018-05-16T12:22:12.595Z,3.33
2018-05-16T12:24:41.442Z,5.15
2018-05-16T12:27:10.169Z,5.18
2018-05-16T12:29:40.947Z,5.32
2018-05-16T12:32:09.869Z,5.03
2018-05-16T12:34:38.962Z,4.53
2018-05-16T12:37:08.466Z,5.32
2018-05-16T12:39:37.085Z,5.22
2018-05-16T12:42:06.041Z,4.32
2018-05-16T12:44:34.916Z,3.40
2018-05-16T12:47:03.038Z,2.87
2018-05-16T12:49:31.911Z,4.50
2018-05-16T12:52:00.719Z,4.18
2018-05-16T12:54:30.274Z,3.37
2018-05-16T12:56:58.879Z,3.30
2018-05-16T12:59:26.949Z,3.75
2018-05-16T13:01:56.729Z,4.35
2018-05-16T13:04:25.347Z,3.92
2018-05-16T13:06:53.419Z,4.60
2018-05-16T13:09:23.112Z,5.12
2018-05-16T13:11:51.801Z,3.58
2018-05-16T13:14:20.427Z,3.37
2018-05-16T13:16:50.541Z,3.28
2018-05-16T13:19:20.228Z,3.25
2018-05-16T13:21:48.885Z,2.87
2018-05-16T13:24:17.697Z,3.67
2018-05-16T13:26:47.356Z,3.67
2018-05-16T13:29:16.328Z,5.03
2018-05-16T13:31:45.930Z,2.80
2018-05-16T13:34:15.739Z,4.15
2018-05-16T13:36:44.585Z,3.67
2018-05-16T13:39:13.466Z,3.65
2018-05-16T13:41:42.861Z,4.18
2018-05-16T13:44:11.843Z,3.53
2018-05-16T13:46:40.707Z,3.08
2018-05-16T13:49:09.457Z,3.53
2018-05-16T13:51:38.588Z,2.97
2018-05-16T13:54:07.421Z,2.65
2018-05-16T13:56:35.551Z,5.15
2018-05-16T13:59:05.021Z,3.83
2018-05-16T14:01:33.178Z,3.87
2018-05-16T14:04:01.913Z,4.12
2018-05-16T14:06:30.703Z,3.40
2018-05-16T14:08:59.390Z,4.18
2018-05-16T14:11:28.248Z,3.78
2018-05-16T14:13:56.325Z,3.75
2018-05-16T14:16:25.341Z,4.35
2018-05-16T14:18:54.016Z,3.92
2018-05-16T14:21:23.023Z,3.40
2018-05-16T14:23:52.515Z,4.93
2018-05-16T14:26:22.021Z,3.50
2018-05-16T14:28:50.786Z,3.30
2018-05-16T14:31:18.902Z,9.02
2018-05-16T14:33:47.769Z,3.37
2018-05-16T14:36:16.139Z,4.45
2018-05-16T14:38:44.241Z,3.33
2018-05-16T14:41:13.441Z,3.37
2018-05-16T14:43:43.050Z,3.42
2018-05-16T14:46:11.879Z,3.08
2018-05-16T14:48:39.997Z,4.20
2018-05-16T14:51:09.613Z,3.97
2018-05-16T14:53:38.501Z,3.95
2018-05-16T14:56:08.113Z,4.97
2018-05-16T14:58:37.917Z,4.10
2018-05-16T15:01:05.965Z,3.47
2018-05-16T15:03:34.061Z,4.12
2018-05-16T15:06:04.240Z,3.92
2018-05-16T15:08:32.926Z,3.47
2018-05-16T15:11:02.881Z,5.60
2018-05-16T15:13:31.758Z,4.43
2018-05-16T15:16:01.161Z,3.65
2018-05-16T15:18:29.741Z,3.53
2018-05-16T15:20:58.433Z,7.90
2018-05-16T15:23:27.517Z,3.85
2018-05-16T15:25:56.385Z,4.10
2018-05-16T15:28:25.428Z,3.50
2018-05-16T15:30:54.749Z,3.35
2018-05-16T15:33:24.211Z,3.55
2018-05-16T15:35:52.896Z,5.12
2018-05-16T15:38:21.850Z,5.15
2018-05-16T15:40:50.497Z,3.30
2018-05-16T15:43:19.836Z,3.47
2018-05-16T15:45:47.940Z,4.30
2018-05-16T15:48:16.009Z,3.22
2018-05-16T15:50:44.404Z,16.83
2018-05-16T15:53:13.265Z,4.03
2018-05-16T15:55:42.197Z,3.05
2018-05-16T15:58:11.164Z,3.62
2018-05-16T16:00:39.236Z,3.20
2018-05-16T16:03:07.309Z,4.25
2018-05-16T16:05:35.696Z,3.50
2018-05-16T16:08:04.661Z,5.82
2018-05-16T16:10:32.658Z,3.42
2018-05-16T16:13:00.745Z,4.50
2018-05-16T16:15:29.616Z,3.12
2018-05-16T16:17:58.672Z,4.03
2018-05-16T16:20:26.784Z,5.15
2018-05-16T16:22:54.857Z,3.87
2018-05-16T16:25:25.109Z,3.58
2018-05-16T16:27:53.981Z,4.05
2018-05-16T16:30:22.050Z,4.00
2018-05-16T16:32:50.741Z,3.50
2018-05-16T16:35:18.804Z,5.10
2018-05-16T16:37:46.889Z,3.97
2018-05-16T16:40:15.937Z,4.47
2018-05-16T16:42:44.665Z,4.22
2018-05-16T16:45:13.621Z,4.90
2018-05-16T16:47:41.731Z,4.15
2018-05-16T16:50:09.853Z,5.22
2018-05-16T16:52:37.901Z,5.15
2018-05-16T16:55:05.958Z,4.70
2018-05-16T16:57:35.865Z,4.87
2018-05-16T17:00:04.746Z,4.30
2018-05-16T17:02:32.821Z,4.62
2018-05-16T17:05:01.158Z,6.25
2018-05-16T17:07:29.232Z,4.87
2018-05-16T17:09:57.325Z,3.87
2018-05-16T17:12:25.724Z,4.72
2018-05-16T17:14:53.761Z,6.70
2018-05-16T17:17:21.850Z,3.50
2018-05-16T17:19:50.841Z,3.20
2018-05-16T17:22:20.949Z,3.58
2018-05-16T17:24:49.005Z,4.40
2018-05-16T17:27:17.929Z,3.30
2018-05-16T17:29:46.036Z,3.35
2018-05-16T17:32:14.916Z,5.25
2018-05-16T17:34:43.763Z,3.92
2018-05-16T17:37:11.850Z,5.05
2018-05-16T17:39:39.921Z,3.47
2018-05-16T17:42:08.020Z,4.53
2018-05-16T17:44:36.873Z,3.85
2018-05-16T17:47:04.969Z,3.65
2018-05-16T17:49:33.211Z,3.35
2018-05-16T17:52:01.703Z,4.62
2018-05-16T17:54:31.462Z,3.85
2018-05-16T17:57:01.137Z,3.95
2018-05-16T17:59:29.192Z,4.45
2018-05-16T18:01:58.113Z,5.93
2018-05-16T18:04:26.962Z,3.70
2018-05-16T18:06:55.969Z,4.53
2018-05-16T18:09:24.033Z,6.10
2018-05-16T18:11:53.030Z,4.47
2018-05-16T18:14:21.814Z,3.75
2018-05-16T18:16:50.680Z,5.37
2018-05-16T18:19:19.505Z,3.97
2018-05-16T18:21:47.593Z,6.37
2018-05-16T18:24:16.470Z,4.50
2018-05-16T18:26:44.840Z,6.87
2018-05-16T18:29:12.923Z,4.93
2018-05-16T18:31:40.984Z,5.97
2018-05-16T18:34:09.090Z,5.65
2018-05-16T18:36:37.194Z,5.65
2018-05-16T18:39:05.265Z,4.78
2018-05-16T18:41:33.909Z,4.87
2018-05-16T18:44:02.789Z,5.03
2018-05-16T18:46:31.764Z,5.75
2018-05-16T18:49:00.351Z,4.60
2018-05-16T18:51:28.436Z,4.85
2018-05-16T18:53:56.521Z,5.15
2018-05-16T18:56:25.413Z,9.63
2018-05-16T18:58:55.216Z,4.60
2018-05-16T19:01:24.070Z,5.82
2018-05-16T19:03:52.158Z,4.53
2018-05-16T19:06:20.246Z,4.32
2018-05-16T19:08:49.103Z,6.03
2018-05-16T19:11:17.113Z,4.28
2018-05-16T19:13:46.493Z,7.15
2018-05-16T19:16:14.561Z,4.87
2018-05-16T19:18:44.505Z,4.95
2018-05-16T19:21:13.395Z,4.97
2018-05-16T19:23:42.293Z,6.68
2018-05-16T19:26:11.173Z,5.13
2018-05-16T19:28:39.226Z,7.28
2018-05-16T19:31:07.282Z,7.23
2018-05-16T19:33:35.373Z,5.37
2018-05-16T19:36:05.157Z,5.20
2018-05-16T19:38:33.268Z,7.23
2018-05-16T19:41:01.388Z,5.30
2018-05-16T19:43:30.224Z,7.23
2018-05-16T19:45:58.301Z,5.40
2018-05-16T19:48:26.381Z,6.97
2018-05-16T19:50:55.473Z,6.03
2018-05-16T19:53:24.320Z,6.60
2018-05-16T19:55:52.941Z,7.33
2018-05-16T19:58:21.033Z,6.80
2018-05-16T20:00:49.868Z,5.43
2018-05-16T20:03:18.327Z,5.73
2018-05-16T20:05:46.359Z,5.30
2018-05-16T20:08:15.188Z,6.10
2018-05-16T20:10:43.622Z,6.53
2018-05-16T20:13:12.410Z,5.80
2018-05-16T20:15:40.457Z,5.57
2018-05-16T20:18:08.561Z,5.47
2018-05-16T20:20:38.249Z,6.00
2018-05-16T20:23:06.308Z,6.37
2018-05-16T20:25:34.385Z,6.00
2018-05-16T20:28:02.481Z,6.00
2018-05-16T20:30:30.537Z,5.77
2018-05-16T20:32:58.598Z,9.07
2018-05-16T20:35:26.977Z,6.63
2018-05-16T20:37:55.057Z,6.97
2018-05-16T20:40:23.131Z,5.90
2018-05-16T20:42:51.608Z,6.60
2018-05-16T20:45:19.717Z,5.67
2018-05-16T20:47:48.543Z,8.73
2018-05-16T20:50:16.952Z,5.93
2018-05-16T20:52:45.038Z,7.87
2018-05-16T20:55:13.115Z,6.77
2018-05-16T20:57:41.965Z,6.50
2018-05-16T21:00:10.069Z,6.17
2018-05-16T21:02:38.150Z,6.70
2018-05-16T21:05:07.461Z,8.17
2018-05-16T21:07:35.521Z,5.93
2018-05-16T21:10:04.477Z,10.33
2018-05-16T21:12:32.569Z,6.10
2018-05-16T21:15:00.616Z,6.63
2018-05-16T21:17:28.717Z,8.20
2018-05-16T21:19:57.112Z,6.43
2018-05-16T21:22:25.397Z,9.23
2018-05-16T21:24:54.533Z,7.83
2018-05-16T21:27:22.612Z,6.67
2018-05-16T21:29:50.703Z,7.83
2018-05-16T21:32:19.957Z,7.20
2018-05-16T21:34:48.056Z,9.10
2018-05-16T21:37:16.106Z,8.70
2018-05-16T21:39:44.440Z,7.13
2018-05-16T21:42:13.293Z,7.23
2018-05-16T21:44:41.369Z,7.90
2018-05-16T21:47:09.832Z,7.23
2018-05-16T21:49:38.006Z,6.70
2018-05-16T21:52:06.062Z,7.50
2018-05-16T21:54:35.040Z,8.37
2018-05-16T21:57:03.860Z,11.53
2018-05-16T21:59:31.945Z,10.00
2018-05-16T22:02:00.337Z,8.53
2018-05-16T22:04:28.388Z,7.10
2018-05-16T22:06:56.460Z,7.30
2018-05-16T22:09:24.837Z,8.00
2018-05-16T22:11:52.913Z,9.17
2018-05-16T22:14:21.293Z,8.13
2018-05-16T22:16:49.673Z,7.57
2018-05-16T22:19:17.736Z,10.10
2018-05-16T22:21:45.816Z,9.10
2018-05-16T22:24:14.197Z,10.10
2018-05-16T22:26:42.369Z,8.47
2018-05-16T22:29:10.425Z,8.60
2018-05-16T22:31:38.832Z,10.70
2018-05-16T22:34:06.917Z,7.90
2018-05-16T22:36:34.964Z,9.03
2018-05-16T22:39:04.072Z,9.37
2018-05-16T22:41:32.158Z,11.37
2018-05-16T22:44:00.201Z,8.73
2018-05-16T22:46:28.273Z,9.07
2018-05-16T22:48:56.357Z,10.30
2018-05-16T22:51:24.421Z,8.87
2018-05-16T22:53:52.493Z,10.43
2018-05-16T22:56:20.568Z,8.73
2018-05-16T22:58:48.645Z,10.87
2018-05-16T23:01:16.737Z,8.73
2018-05-16T23:03:45.986Z,10.50
2018-05-16T23:06:14.072Z,10.20
2018-05-16T23:08:42.169Z,9.57
2018-05-16T23:11:11.065Z,10.33
2018-05-16T23:13:40.732Z,13.53
2018-05-16T23:16:09.211Z,8.47
2018-05-16T23:18:38.037Z,10.37
2018-05-16T23:21:06.121Z,9.27
2018-05-16T23:23:35.317Z,8.40
2018-05-16T23:26:04.153Z,9.37
2018-05-16T23:28:32.424Z,9.57
2018-05-16T23:31:00.562Z,8.43
2018-05-16T23:33:29.416Z,8.07
2018-05-16T23:35:57.514Z,8.37
2018-05-16T23:38:26.047Z,7.57
2018-05-16T23:40:54.115Z,9.73
2018-05-16T23:43:22.213Z,7.47
2018-05-16T23:45:50.593Z,11.47
2018-05-16T23:48:18.694Z,7.47
2018-05-16T23:50:47.577Z,7.23
2018-05-16T23:53:16.465Z,8.40
2018-05-16T23:55:45.309Z,8.80
2018-05-16T23:58:13.433Z,9.30
